Time;durP1;ratioP1;P1;durP2;ratioP2;P2;SDS_P1;SDS_P2;PMS_P1;PMS_P2;Temp;Humidity;BMP_temperature;BMP_pressure;BME280_temperature;BME280_humidity;BME280_pressure;Samples;Min_cycle;Max_cycle;Signal;HPM_P1;HPM_P2
2022/10/12 00:01:12;;;;;;;1999.90;999.90;;;;;;;13.27;100.00;94913.84;5054998;28;20177;-62
2022/10/12 00:03:38;;;;;;;1999.90;999.90;;;;;;;13.21;100.00;94912.84;5055997;28;20197;-62
2022/10/12 00:06:10;;;;;;;1999.90;999.90;;;;;;;13.24;100.00;94908.44;5056647;28;20172;-62
2022/10/12 00:08:37;;;;;;;1999.90;999.90;;;;;;;13.30;100.00;94895.75;5056414;28;20310;-63
2022/10/12 00:11:03;;;;;;;1999.90;999.90;;;;;;;13.30;100.00;94890.28;5056569;28;20235;-62
2022/10/12 00:13:29;;;;;;;1999.90;999.90;;;;;;;13.29;100.00;94888.72;5056373;28;20204;-61
2022/10/12 00:15:55;;;;;;;1999.90;999.90;;;;;;;13.26;100.00;94878.63;5055936;28;20173;-61
2022/10/12 00:18:21;;;;;;;1999.90;999.90;;;;;;;13.26;100.00;94879.38;5055508;28;20198;-61
2022/10/12 00:20:46;;;;;;;1999.90;999.90;;;;;;;13.36;100.00;94877.56;5055788;28;20375;-61
2022/10/12 00:23:12;;;;;;;1999.90;999.90;;;;;;;13.29;100.00;94884.00;5055833;28;20204;-61
2022/10/12 00:25:39;;;;;;;1999.90;999.90;;;;;;;13.23;100.00;94874.75;5055544;28;20168;-65
2022/10/12 00:28:05;;;;;;;1999.90;999.90;;;;;;;13.22;100.00;94877.94;5055939;28;20188;-65
2022/10/12 00:30:31;;;;;;;1999.90;999.90;;;;;;;13.25;100.00;94880.59;5056046;28;20184;-65
2022/10/12 00:32:56;;;;;;;1999.90;999.90;;;;;;;13.16;100.00;94890.66;5055654;28;20200;-65
2022/10/12 00:35:22;;;;;;;1999.90;999.90;;;;;;;13.26;100.00;94876.66;5055523;28;20174;-65
2022/10/12 00:37:47;;;;;;;1999.90;999.90;;;;;;;13.29;100.00;94877.75;5055361;28;20204;-66
2022/10/12 00:40:12;;;;;;;1999.90;999.90;;;;;;;13.19;100.00;94870.59;5055267;28;20169;-66
2022/10/12 00:42:38;;;;;;;1999.90;999.90;;;;;;;13.17;100.00;94865.53;5055605;28;20172;-66
2022/10/12 00:45:04;;;;;;;1999.90;999.90;;;;;;;13.08;100.00;94879.09;5055435;28;20241;-64
2022/10/12 00:47:36;;;;;;;1999.90;999.90;;;;;;;13.10;100.00;94879.44;5056355;28;20198;-64
2022/10/12 00:50:19;;;;;;;1999.90;999.90;;;;;;;13.02;100.00;94874.56;5055144;28;20202;-65
2022/10/12 00:52:57;;;;;;;1999.90;999.90;;;;;;;13.04;100.00;94870.19;5055883;28;20199;-64
2022/10/12 00:55:24;;;;;;;1999.90;999.90;;;;;;;13.05;100.00;94879.94;5055058;28;20179;-64
2022/10/12 00:57:51;;;;;;;1999.90;999.90;;;;;;;13.03;100.00;94868.66;5055029;28;20174;-64
2022/10/12 01:00:18;;;;;;;1999.90;999.90;;;;;;;13.06;100.00;94865.06;5054909;28;20177;-63
2022/10/12 01:02:46;;;;;;;1999.90;999.90;;;;;;;13.05;100.00;94868.97;5055441;28;20179;-61
2022/10/12 01:05:12;;;;;;;1999.90;999.90;;;;;;;13.08;100.00;94856.41;5054792;28;20299;-62
2022/10/12 01:07:37;;;;;;;1999.90;999.90;;;;;;;13.09;100.00;94863.41;5055456;28;20186;-62
2022/10/12 01:10:03;;;;;;;1999.90;999.90;;;;;;;13.18;100.00;94858.06;5054756;28;20185;-61
2022/10/12 01:12:29;;;;;;;1999.90;999.90;;;;;;;13.20;100.00;94847.47;5054545;28;20266;-62
2022/10/12 01:14:55;;;;;;;1999.90;999.90;;;;;;;13.19;100.00;94851.41;5055415;28;20199;-61
2022/10/12 01:17:33;;;;;;;1999.90;999.90;;;;;;;13.21;100.00;94847.03;5055088;28;20180;-61
2022/10/12 01:20:04;;;;;;;1999.90;999.90;;;;;;;13.23;100.00;94847.34;5054705;28;20228;-63
2022/10/12 01:22:36;;;;;;;1999.90;999.90;;;;;;;13.28;100.00;94851.53;5055139;28;20189;-62
2022/10/12 01:25:36;;;;;;;1999.90;999.90;;;;;;;13.32;100.00;94850.25;5054920;28;20313;-62
2022/10/12 01:28:38;;;;;;;1999.90;999.90;;;;;;;13.28;100.00;94854.28;5055097;28;20193;-62
2022/10/12 01:31:29;;;;;;;1999.90;999.90;;;;;;;13.26;100.00;94845.72;5051166;28;20226;-62
2022/10/12 01:34:13;;;;;;;1999.90;999.90;;;;;;;13.20;100.00;94859.19;5054396;28;20252;-62
2022/10/12 01:36:43;;;;;;;1999.90;999.90;;;;;;;13.18;100.00;94863.56;5054874;28;20173;-65
2022/10/12 01:39:27;;;;;;;1999.90;999.90;;;;;;;13.18;100.00;94855.34;5054948;28;20182;-62
2022/10/12 01:41:56;;;;;;;1999.90;999.90;;;;;;;13.26;100.00;94856.69;5054861;28;20217;-61
2022/10/12 01:44:23;;;;;;;1999.90;999.90;;;;;;;13.29;100.00;94850.31;5054257;28;20177;-60
2022/10/12 01:46:51;;;;;;;1999.90;999.90;;;;;;;13.28;100.00;94855.06;5054652;28;20220;-61
2022/10/12 01:49:21;;;;;;;1999.90;999.90;;;;;;;13.25;100.00;94855.91;5053905;28;20188;-61
2022/10/12 01:51:52;;;;;;;1999.90;999.90;;;;;;;13.18;100.00;94860.81;5053962;28;20245;-60
2022/10/12 01:54:42;;;;;;;1999.90;999.90;;;;;;;13.20;100.00;94859.19;5054014;28;20183;-60
2022/10/12 01:57:14;;;;;;;1999.90;999.90;;;;;;;13.30;100.00;94851.88;5054170;28;20261;-60
2022/10/12 02:00:00;;;;;;;1999.90;999.90;;;;;;;13.20;100.00;94848.22;5053780;28;20234;-60
2022/10/12 02:02:49;;;;;;;1999.90;999.90;;;;;;;13.24;100.00;94837.94;5054520;28;20177;-60
2022/10/12 02:05:27;;;;;;;1999.90;999.90;;;;;;;13.29;100.00;94833.88;5043716;28;20213;-60
2022/10/12 02:08:02;;;;;;;1999.90;999.90;;;;;;;13.30;100.00;94835.44;5054644;28;20179;-60
2022/10/12 02:10:41;;;;;;;1999.90;999.90;;;;;;;13.15;100.00;94834.28;5054004;28;20183;-60
2022/10/12 02:13:10;;;;;;;1999.90;999.90;;;;;;;13.26;100.00;94829.28;5054840;28;20222;-60
2022/10/12 02:15:37;;;;;;;1999.90;999.90;;;;;;;13.27;100.00;94814.34;5053721;28;20178;-65
2022/10/12 02:18:05;;;;;;;1999.90;999.90;;;;;;;13.26;100.00;94810.09;5053737;28;20188;-63
2022/10/12 02:20:32;;;;;;;1999.90;999.90;;;;;;;13.18;100.00;94819.69;5053477;28;20294;-63
2022/10/12 02:23:00;;;;;;;1999.90;999.90;;;;;;;13.16;100.00;94813.88;5053441;28;20181;-63
2022/10/12 02:25:27;;;;;;;1999.90;999.90;;;;;;;13.16;100.00;94809.16;5052909;28;20184;-63
2022/10/12 02:28:04;;;;;;;1999.90;999.90;;;;;;;13.21;100.00;94802.38;5054118;28;20187;-63
2022/10/12 02:30:37;;;;;;;1999.90;999.90;;;;;;;13.23;100.00;94792.50;5054094;28;20173;-63
2022/10/12 02:33:11;;;;;;;1999.90;999.90;;;;;;;13.21;100.00;94783.19;5053397;28;20212;-62
2022/10/12 02:36:12;;;;;;;1999.90;999.90;;;;;;;13.22;100.00;94771.78;5053403;28;20180;-61
2022/10/12 02:38:44;;;;;;;1999.90;999.90;;;;;;;13.25;100.00;94778.34;5049078;28;20188;-61
2022/10/12 02:41:24;;;;;;;1999.90;999.90;;;;;;;13.29;100.00;94768.84;5053293;28;20177;-60
2022/10/12 02:44:00;;;;;;;1999.90;999.90;;;;;;;13.32;100.00;94769.94;5053524;28;20168;-61
2022/10/12 02:46:28;;;;;;;1999.90;999.90;;;;;;;13.36;100.00;94756.88;5054063;28;20197;-61
2022/10/12 02:48:57;;;;;;;1999.90;999.90;;;;;;;13.41;100.00;94753.63;5053444;28;20181;-61
2022/10/12 02:51:25;;;;;;;1999.90;999.90;;;;;;;13.38;100.00;94755.25;5053451;28;20256;-64
2022/10/12 02:53:51;;;;;;;1999.90;999.90;;;;;;;13.41;100.00;94748.13;5053039;28;20191;-64
2022/10/12 02:56:16;;;;;;;1999.90;999.90;;;;;;;13.41;100.00;94737.16;5053891;28;20182;-63
2022/10/12 02:58:44;;;;;;;1999.90;999.90;;;;;;;13.40;100.00;94734.84;5053306;28;20177;-63
2022/10/12 03:01:10;;;;;;;1999.90;999.90;;;;;;;13.43;100.00;94732.00;5053326;28;20181;-63
2022/10/12 03:03:35;;;;;;;1999.90;999.90;;;;;;;13.46;100.00;94717.41;5053758;28;20211;-64
2022/10/12 03:06:00;;;;;;;1999.90;999.90;;;;;;;13.46;100.00;94717.41;5053158;28;20180;-63
2022/10/12 03:08:26;;;;;;;1999.90;999.90;;;;;;;13.47;100.00;94721.69;5053761;28;20276;-61
2022/10/12 03:10:51;;;;;;;1999.90;999.90;;;;;;;13.45;100.00;94718.63;5053694;28;20189;-61
2022/10/12 03:13:17;;;;;;;1999.90;999.90;;;;;;;13.46;100.00;94717.41;5053125;28;20213;-60
2022/10/12 03:15:42;;;;;;;1999.90;999.90;;;;;;;13.44;100.00;94705.34;5053601;28;20181;-61
2022/10/12 03:18:07;;;;;;;1999.90;999.90;;;;;;;13.44;100.00;94706.09;5053241;28;20183;-60
2022/10/12 03:20:33;;;;;;;1999.90;999.90;;;;;;;13.35;100.00;94716.97;5052776;28;20225;-60
2022/10/12 03:22:58;;;;;;;1999.90;999.90;;;;;;;13.43;100.00;94707.31;5053264;28;20178;-60
2022/10/12 03:25:23;;;;;;;1999.90;999.90;;;;;;;13.39;100.00;94703.91;5053648;28;20210;-60
2022/10/12 03:27:49;;;;;;;1999.90;999.90;;;;;;;13.41;100.00;94701.50;5053085;28;20169;-65
2022/10/12 03:30:14;;;;;;;1999.90;999.90;;;;;;;13.44;100.00;94695.13;5053062;28;20173;-61
2022/10/12 03:32:40;;;;;;;1999.90;999.90;;;;;;;13.44;100.00;94681.41;5053051;28;20190;-61
2022/10/12 03:35:06;;;;;;;1999.90;999.90;;;;;;;13.42;100.00;94686.56;5053546;28;20208;-61
2022/10/12 03:37:31;;;;;;;1999.90;999.90;;;;;;;13.44;100.00;94677.91;5056726;28;20224;-60
2022/10/12 03:39:56;;;;;;;1999.90;999.90;;;;;;;13.42;100.00;94669.34;5056468;28;20170;-61
2022/10/12 03:42:22;;;;;;;1999.90;999.90;;;;;;;13.45;100.00;94672.00;5056677;28;20260;-60
2022/10/12 03:44:47;;;;;;;1999.90;999.90;;;;;;;13.44;100.00;94662.22;5056723;28;20170;-61
2022/10/12 03:47:13;;;;;;;1999.90;999.90;;;;;;;13.43;100.00;94663.44;5056415;28;20184;-61
2022/10/12 03:49:38;;;;;;;1999.90;999.90;;;;;;;13.46;100.00;94662.56;5056162;28;20180;-64
2022/10/12 03:52:04;;;;;;;1999.90;999.90;;;;;;;13.44;100.00;94659.47;5056200;28;20204;-63
2022/10/12 03:54:29;;;;;;;1999.90;999.90;;;;;;;13.46;100.00;94653.53;5055989;28;20177;-62
2022/10/12 03:56:55;;;;;;;1999.90;999.90;;;;;;;13.45;100.00;94655.53;5057194;28;20251;-62
2022/10/12 03:59:20;;;;;;;1999.90;999.90;;;;;;;13.44;100.00;94651.25;5056264;28;20255;-63
2022/10/12 04:01:45;;;;;;;1999.90;999.90;;;;;;;13.43;100.00;94657.94;5056269;28;20176;-62
2022/10/12 04:04:11;;;;;;;1999.90;999.90;;;;;;;13.41;100.00;94654.88;5056102;28;20220;-62
2022/10/12 04:06:36;;;;;;;1999.90;999.90;;;;;;;13.42;100.00;94645.44;5056226;28;20180;-65
2022/10/12 04:09:02;;;;;;;1999.90;999.90;;;;;;;13.44;100.00;94637.53;5056304;28;20309;-62
2022/10/12 04:11:27;;;;;;;1999.90;999.90;;;;;;;13.36;100.00;94641.69;5056112;28;20202;-62
2022/10/12 04:13:52;;;;;;;1999.90;999.90;;;;;;;13.42;100.00;94639.19;5056688;28;20181;-62
2022/10/12 04:16:18;;;;;;;1999.90;999.90;;;;;;;13.43;100.00;94635.25;5056395;28;20293;-62
2022/10/12 04:18:43;;;;;;;1999.90;999.90;;;;;;;13.45;100.00;94628.09;5055818;28;20180;-62
2022/10/12 04:21:12;;;;;;;1999.90;999.90;;;;;;;13.48;100.00;94621.75;5056360;28;20226;-63
2022/10/12 04:23:38;;;;;;;1999.90;999.90;;;;;;;13.45;100.00;94619.88;5055865;28;20180;-63
2022/10/12 04:26:03;;;;;;;1999.90;999.90;;;;;;;13.40;100.00;94625.91;5056407;28;20181;-59
2022/10/12 04:28:29;;;;;;;1999.90;999.90;;;;;;;13.38;100.00;94623.59;5056701;28;20185;-61
2022/10/12 04:30:54;;;;;;;1999.90;999.90;;;;;;;13.32;100.00;94625.38;5055600;28;20177;-62
2022/10/12 04:33:19;;;;;;;1999.90;999.90;;;;;;;13.34;100.00;94616.72;5055190;28;20212;-62
2022/10/12 04:35:45;;;;;;;1999.90;999.90;;;;;;;13.29;100.00;94619.97;5055576;28;20178;-62
2022/10/12 04:38:12;;;;;;;1999.90;999.90;;;;;;;13.30;100.00;94616.06;5055613;28;20268;-62
2022/10/12 04:40:37;;;;;;;1999.90;999.90;;;;;;;13.30;100.00;94616.06;5055945;28;20259;-68
2022/10/12 04:43:03;;;;;;;1999.90;999.90;;;;;;;13.29;100.00;94619.97;5055539;28;20269;-63
2022/10/12 04:45:28;;;;;;;1999.90;999.90;;;;;;;13.29;100.00;94612.53;5055655;28;20265;-63
2022/10/12 04:47:54;;;;;;;1999.90;999.90;;;;;;;13.26;100.00;94604.44;5054704;28;20205;-64
2022/10/12 04:50:19;;;;;;;1999.90;999.90;;;;;;;13.25;100.00;94619.31;5055291;28;20176;-63
2022/10/12 04:52:45;;;;;;;1999.90;999.90;;;;;;;13.28;100.00;94607.47;5055679;28;20220;-63
2022/10/12 04:55:10;;;;;;;1999.90;999.90;;;;;;;13.28;100.00;94607.47;5055041;28;20213;-63
2022/10/12 04:57:35;;;;;;;1999.90;999.90;;;;;;;13.27;100.00;94594.97;5055007;28;20184;-64
2022/10/12 05:00:01;;;;;;;1999.90;999.90;;;;;;;13.26;100.00;94594.22;5055120;28;20231;-65
2022/10/12 05:02:26;;;;;;;1999.90;999.90;;;;;;;13.32;100.00;94586.19;5055217;28;20527;-62
2022/10/12 05:04:51;;;;;;;1999.90;999.90;;;;;;;13.26;100.00;94585.22;5055153;28;20243;-62
2022/10/12 05:07:17;;;;;;;1999.90;999.90;;;;;;;13.23;100.00;94577.88;5054778;28;20247;-62
2022/10/12 05:09:44;;;;;;;1999.90;999.90;;;;;;;13.31;100.00;94576.44;5054916;28;20190;-62
2022/10/12 05:12:10;;;;;;;1999.90;999.90;;;;;;;13.30;100.00;94572.19;5055284;28;20221;-62
2022/10/12 05:14:35;;;;;;;1999.90;999.90;;;;;;;13.31;100.00;94568.22;5054786;28;20177;-62
2022/10/12 05:17:00;;;;;;;1999.90;999.90;;;;;;;13.25;100.00;94565.25;5054545;28;20176;-61
2022/10/12 05:19:26;;;;;;;1999.90;999.90;;;;;;;13.27;100.00;94564.81;5054330;28;20219;-63
2022/10/12 05:21:53;;;;;;;1999.90;999.90;;;;;;;13.25;100.00;94559.00;5055196;28;20173;-66
2022/10/12 05:24:18;;;;;;;1999.90;999.90;;;;;;;13.22;100.00;94548.91;5054777;28;20168;-63
2022/10/12 05:26:44;;;;;;;1999.90;999.90;;;;;;;13.15;100.00;94554.66;5054440;28;20181;-64
2022/10/12 05:29:09;;;;;;;1999.90;999.90;;;;;;;13.15;100.00;94554.66;5054555;28;20195;-63
2022/10/12 05:31:35;;;;;;;1999.90;999.90;;;;;;;13.11;100.00;94546.50;5054458;28;20205;-65
2022/10/12 05:34:00;;;;;;;1999.90;999.90;;;;;;;13.18;100.00;94537.28;5054227;28;20181;-64
2022/10/12 05:36:26;;;;;;;1999.90;999.90;;;;;;;13.17;100.00;94527.53;5054222;28;20182;-62
2022/10/12 05:38:51;;;;;;;1999.90;999.90;;;;;;;13.25;100.00;94531.56;5054117;28;20216;-70
2022/10/12 05:41:16;;;;;;;1999.90;999.90;;;;;;;13.27;100.00;94523.69;5054301;28;20187;-70
2022/10/12 05:43:42;;;;;;;1999.90;999.90;;;;;;;13.27;100.00;94518.22;5054333;28;20181;-69
2022/10/12 05:46:07;;;;;;;1999.90;999.90;;;;;;;13.27;100.00;94521.69;5054034;28;20213;-70
2022/10/12 05:48:32;;;;;;;1999.90;999.90;;;;;;;13.22;100.00;94516.00;5054084;28;20176;-70
2022/10/12 05:50:58;;;;;;;1999.90;999.90;;;;;;;13.26;100.00;94513.94;5053769;28;20176;-69
2022/10/12 05:53:24;;;;;;;1999.90;999.90;;;;;;;13.29;100.00;94511.06;5054374;28;20241;-70
2022/10/12 05:55:59;;;;;;;1999.90;999.90;;;;;;;13.31;100.00;94513.38;5053867;28;20182;-63
2022/10/12 05:58:27;;;;;;;1999.90;999.90;;;;;;;13.36;100.00;94512.81;5053327;28;20181;-67
2022/10/12 06:00:53;;;;;;;1999.90;999.90;;;;;;;13.36;100.00;94509.31;5054095;28;20181;-67
2022/10/12 06:03:19;;;;;;;1999.90;999.90;;;;;;;13.37;100.00;94516.31;5053880;28;20280;-67
2022/10/12 06:05:45;;;;;;;1999.90;999.90;;;;;;;13.43;100.00;94512.56;5054000;28;20179;-68
2022/10/12 06:08:10;;;;;;;1999.90;999.90;;;;;;;13.37;100.00;94508.88;5053511;28;20178;-66
2022/10/12 06:10:49;;;;;;;1999.90;999.90;;;;;;;13.42;100.00;94508.31;5053866;28;20181;-67
2022/10/12 06:13:16;;;;;;;1999.90;999.90;;;;;;;13.44;100.00;94505.13;5054247;28;20217;-66
2022/10/12 06:15:44;;;;;;;1999.90;999.90;;;;;;;13.46;100.00;94497.97;5053743;28;20179;-63
2022/10/12 06:18:09;;;;;;;1999.90;999.90;;;;;;;13.46;100.00;94502.69;5053666;28;20211;-65
2022/10/12 06:20:35;;;;;;;1999.90;999.90;;;;;;;13.47;100.00;94499.50;5053440;28;20226;-66
2022/10/12 06:23:00;;;;;;;1999.90;999.90;;;;;;;13.49;100.00;94501.81;5053653;28;20185;-65
2022/10/12 06:25:25;;;;;;;1999.90;999.90;;;;;;;13.44;100.00;94505.88;5053944;28;20260;-66
2022/10/12 06:27:51;;;;;;;1999.90;999.90;;;;;;;13.39;100.00;94503.69;5053267;28;20173;-66
2022/10/12 06:30:16;;;;;;;1999.90;999.90;;;;;;;13.38;100.00;94501.41;5053518;28;20181;-65
2022/10/12 06:32:41;;;;;;;1999.90;999.90;;;;;;;13.38;100.00;94507.66;5053267;28;20212;-75
2022/10/12 06:35:07;;;;;;;1999.90;999.90;;;;;;;13.37;100.00;94506.13;5053308;28;20238;-71
2022/10/12 06:37:32;;;;;;;1999.90;999.90;;;;;;;13.38;100.00;94519.38;5054207;28;20188;-70
2022/10/12 06:39:58;;;;;;;1999.90;999.90;;;;;;;13.50;100.00;94503.31;5053404;28;20227;-69
2022/10/12 06:42:23;;;;;;;1999.90;999.90;;;;;;;13.60;100.00;94502.97;5053110;28;20187;-70
2022/10/12 06:44:49;;;;;;;1999.90;999.90;;;;;;;13.62;100.00;94511.53;5053405;28;20180;-69
2022/10/12 06:47:14;;;;;;;1999.90;999.90;;;;;;;13.74;100.00;94507.22;5053260;28;20170;-70
2022/10/12 06:49:39;;;;;;;1999.90;999.90;;;;;;;13.76;100.00;94510.28;5053329;28;20180;-75
2022/10/12 06:52:05;;;;;;;1999.90;999.90;;;;;;;13.67;100.00;94519.22;5053545;28;20254;-65
2022/10/12 06:54:30;;;;;;;1999.90;999.90;;;;;;;13.85;100.00;94513.09;5053445;28;20181;-66
2022/10/12 06:56:55;;;;;;;1999.90;999.90;;;;;;;13.80;100.00;94522.66;5053265;28;20173;-67
2022/10/12 06:59:21;;;;;;;1999.90;999.90;;;;;;;13.93;100.00;94523.38;5053814;28;20232;-67
2022/10/12 07:01:48;;;;;;;1999.90;999.90;;;;;;;14.06;100.00;94529.56;5053689;28;20177;-67
2022/10/12 07:04:15;;;;;;;1999.90;999.90;;;;;;;14.19;100.00;94524.81;5053072;28;20280;-68
2022/10/12 07:06:40;;;;;;;1999.90;999.90;;;;;;;14.24;100.00;94529.75;5053150;28;20177;-68
2022/10/12 07:09:06;;;;;;;1999.90;999.90;;;;;;;14.29;100.00;94537.41;5053690;28;20191;-74
2022/10/12 07:11:31;;;;;;;1999.90;999.90;;;;;;;14.33;100.00;94543.56;5055829;28;20223;-66
2022/10/12 07:13:57;;;;;;;1999.90;999.90;;;;;;;14.39;100.00;94558.22;5057051;28;20185;-66
2022/10/12 07:16:22;;;;;;;1999.90;999.90;;;;;;;14.44;100.00;94563.16;5057608;28;20170;-66
2022/10/12 07:18:48;;;;;;;1999.90;999.90;;;;;;;14.57;100.00;94563.84;5057557;28;20271;-66
2022/10/12 07:21:13;;;;;;;1999.90;999.90;;;;;;;14.56;100.00;94580.78;5056670;28;20232;-66
2022/10/12 07:23:39;;;;;;;1999.90;999.90;;;;;;;14.55;100.00;94593.75;5056653;28;20177;-67
2022/10/12 07:26:05;;;;;;;1999.90;999.90;;;;;;;14.50;100.00;94605.31;5057651;28;20263;-66
2022/10/12 07:28:33;;;;;;;1999.90;999.90;;;;;;;14.55;100.00;94632.22;5056808;28;20169;-70
2022/10/12 07:31:03;;;;;;;1999.90;999.90;;;;;;;14.51;100.00;94630.81;5056786;28;20181;-66
2022/10/12 07:33:33;;;;;;;1999.90;999.90;;;;;;;14.57;100.00;94640.03;5056762;28;20209;-65
2022/10/12 07:36:00;;;;;;;1999.90;999.90;;;;;;;14.64;100.00;94648.78;5056350;28;20328;-64
2022/10/12 07:38:26;;;;;;;1999.90;999.90;;;;;;;14.67;100.00;94664.38;5056619;28;20205;-64
2022/10/12 07:40:51;;;;;;;1999.90;999.90;;;;;;;14.78;100.00;94678.50;5056919;28;20252;-64
2022/10/12 07:43:17;;;;;;;1999.90;999.90;;;;;;;14.82;100.00;94695.63;5057106;28;20182;-65
2022/10/12 07:45:43;;;;;;;1999.90;999.90;;;;;;;15.00;100.00;94703.22;5056216;28;20174;-65
2022/10/12 07:48:08;;;;;;;1999.90;999.90;;;;;;;14.96;100.00;94722.63;5056063;28;20257;-63
2022/10/12 07:50:34;;;;;;;1999.90;999.90;;;;;;;14.84;100.00;94748.19;5056422;28;20193;-63
2022/10/12 07:52:59;;;;;;;1999.90;999.90;;;;;;;14.80;100.00;94768.78;5056872;28;20293;-64
2022/10/12 07:55:24;;;;;;;1999.90;999.90;;;;;;;14.84;100.00;94775.69;5056853;28;20193;-63
2022/10/12 07:57:50;;;;;;;1999.90;999.90;;;;;;;14.74;100.00;94793.31;5056533;28;20273;-64
2022/10/12 08:00:15;;;;;;;1999.90;999.90;;;;;;;14.80;100.00;94813.53;5056189;28;20228;-64
2022/10/12 08:02:41;;;;;;;1999.90;999.90;;;;;;;14.64;100.00;94821.91;5056268;28;20174;-64
2022/10/12 08:05:06;;;;;;;1999.90;999.90;;;;;;;14.69;100.00;94824.13;5056204;28;20284;-62
2022/10/12 08:07:32;;;;;;;1999.90;999.90;;;;;;;14.82;100.00;94833.09;5056169;28;20196;-64
2022/10/12 08:09:57;;;;;;;1999.90;999.90;;;;;;;14.89;100.00;94832.84;5056250;28;20181;-63
2022/10/12 08:12:22;;;;;;;1999.90;999.90;;;;;;;15.03;100.00;94834.34;5055902;28;20209;-62
2022/10/12 08:14:48;;;;;;;1999.90;999.90;;;;;;;14.99;100.00;94845.47;5056690;28;20274;-62
2022/10/12 08:17:13;;;;;;;1999.90;999.90;;;;;;;14.86;100.00;94852.22;5056674;28;20170;-62
2022/10/12 08:19:39;;;;;;;1999.90;999.90;;;;;;;15.11;100.00;94839.16;5055902;28;20221;-63
2022/10/12 08:22:04;;;;;;;1999.90;999.90;;;;;;;15.12;100.00;94840.69;5054733;28;20174;-66
2022/10/12 08:24:29;;;;;;;1999.90;999.90;;;;;;;15.34;100.00;94833.22;5056642;28;20189;-66
2022/10/12 08:26:55;;;;;;;1999.90;999.90;;;;;;;15.38;100.00;94842.19;5055735;28;20212;-70
2022/10/12 08:29:20;;;;;;;1999.90;999.90;;;;;;;15.17;100.00;94859.41;5055676;28;20185;-70
2022/10/12 08:31:48;;;;;;;1999.90;999.90;;;;;;;15.28;100.00;94865.28;5056161;28;20208;-70
2022/10/12 08:34:13;;;;;;;1999.90;999.90;;;;;;;15.38;100.00;94861.44;5055588;28;20210;-69
2022/10/12 08:36:39;;;;;;;1999.90;999.90;;;;;;;15.29;100.00;94869.56;5055373;28;20198;-71
2022/10/12 08:39:05;;;;;;;1999.90;999.90;;;;;;;15.45;100.00;94872.19;5055245;28;20200;-71
2022/10/12 08:41:49;;;;;;;1999.90;999.90;;;;;;;15.61;100.00;94876.72;5055640;28;20174;-71
2022/10/12 08:44:40;;;;;;;1999.90;999.90;;;;;;;15.65;100.00;94885.63;5055921;28;20181;-63
2022/10/12 08:47:17;;;;;;;1999.90;999.90;;;;;;;15.69;100.00;94889.03;5056181;28;20170;-64
2022/10/12 08:49:44;;;;;;;1999.90;999.90;;;;;;;15.48;100.00;94896.06;5055191;28;20170;-64
2022/10/12 08:52:40;;;;;;;1999.90;999.90;;;;;;;15.40;100.00;94900.28;5055358;28;20201;-64
2022/10/12 08:55:30;;;;;;;1999.90;999.90;;;;;;;15.44;100.00;94911.94;5054380;28;20232;-64
2022/10/12 08:57:56;;;;;;;1999.90;999.90;;;;;;;15.42;100.00;94917.13;5056000;28;20185;-64
2022/10/12 09:00:21;;;;;;;1999.90;999.90;;;;;;;15.56;100.00;94924.88;5055716;28;20174;-63
2022/10/12 09:03:08;;;;;;;1999.90;999.90;;;;;;;15.36;100.00;94927.16;5055221;28;20185;-73
2022/10/12 09:05:48;;;;;;;1999.90;999.90;;;;;;;15.38;100.00;94932.22;5055124;28;20208;-72
2022/10/12 09:08:40;;;;;;;1999.90;999.90;;;;;;;15.35;100.00;94939.38;5055529;28;20239;-72
2022/10/12 09:11:34;;;;;;;1999.90;999.90;;;;;;;15.39;100.00;94936.50;5054700;28;20174;-74
2022/10/12 09:14:06;;;;;;;1999.90;999.90;;;;;;;15.52;100.00;94943.50;5054782;28;20190;-72
2022/10/12 09:16:39;;;;;;;1999.90;999.90;;;;;;;15.61;100.00;94938.06;5054790;28;20174;-65
2022/10/12 09:19:27;;;;;;;1999.90;999.90;;;;;;;15.58;100.00;94941.72;5055085;28;20257;-62
2022/10/12 09:21:54;;;;;;;1999.90;999.90;;;;;;;15.63;100.00;94943.88;5054316;28;20189;-72
2022/10/12 09:24:26;;;;;;;1999.90;999.90;;;;;;;15.39;100.00;94953.00;5055217;28;20208;-72
2022/10/12 09:26:56;;;;;;;1999.90;999.90;;;;;;;15.60;100.00;94963.28;5054469;28;20227;-72
2022/10/12 09:29:28;;;;;;;1999.90;999.90;;;;;;;15.69;100.00;94955.88;5055422;28;20174;-72
2022/10/12 09:32:12;;;;;;;1999.90;999.90;;;;;;;15.80;100.00;94956.28;5055635;28;20193;-71
2022/10/12 09:34:38;;;;;;;1999.90;999.90;;;;;;;15.78;100.00;94953.19;5054820;28;20184;-72
2022/10/12 09:37:05;;;;;;;1999.90;999.90;;;;;;;15.95;100.00;94964.78;5054043;28;20226;-63
2022/10/12 09:39:35;;;;;;;1999.90;999.90;;;;;;;16.12;100.00;94966.91;5054810;28;20213;-67
2022/10/12 09:42:01;;;;;;;1999.90;999.90;;;;;;;16.15;100.00;94971.53;5054191;28;20347;-67
2022/10/12 09:44:38;;;;;;;1999.90;999.90;;;;;;;16.21;100.00;94964.22;5054715;28;20194;-68
2022/10/12 09:47:25;;;;;;;1999.90;999.90;;;;;;;16.18;100.00;94970.63;5053931;28;20170;-69
2022/10/12 09:49:57;;;;;;;1999.90;999.90;;;;;;;15.77;100.00;94984.69;5054786;28;20177;-68
2022/10/12 09:52:30;;;;;;;1999.90;999.90;;;;;;;15.96;100.00;94980.88;5054764;28;20213;-69
2022/10/12 09:55:02;;;;;;;1999.90;999.90;;;;;;;16.28;100.00;94968.69;5054601;28;20177;-65
2022/10/12 09:57:39;;;;;;;1999.90;999.90;;;;;;;16.35;100.00;94966.44;5054022;28;20174;-63
2022/10/12 10:00:23;;;;;;;1999.90;999.90;;;;;;;16.56;100.00;94961.38;5054503;28;20166;-64
2022/10/12 10:02:50;;;;;;;1999.90;999.90;;;;;;;16.72;100.00;94964.69;5054739;28;20227;-64
2022/10/12 10:05:22;;;;;;;1999.90;999.90;;;;;;;16.90;100.00;94975.03;5053911;28;20200;-64
2022/10/12 10:07:48;;;;;;;1999.90;999.90;;;;;;;16.67;100.00;94984.56;5053825;28;20181;-64
2022/10/12 10:10:14;;;;;;;1999.90;999.90;;;;;;;16.92;100.00;94984.38;5054534;28;20177;-61
2022/10/12 10:12:51;;;;;;;1999.90;999.90;;;;;;;17.25;100.00;94981.88;5053948;28;20229;-69
2022/10/12 10:15:22;;;;;;;1999.90;999.90;;;;;;;17.57;100.00;94967.56;5054526;28;20165;-64
2022/10/12 10:17:52;;;;;;;1999.90;999.90;;;;;;;17.37;100.00;94970.72;5054152;28;20170;-66
2022/10/12 10:20:43;;;;;;;1999.90;999.90;;;;;;;17.56;100.00;94971.56;5053712;28;20236;-65
2022/10/12 10:23:22;;;;;;;1999.90;999.90;;;;;;;17.68;100.00;94973.41;5051653;28;20194;-64
2022/10/12 10:25:55;;;;;;;1999.90;999.90;;;;;;;17.64;100.00;94984.63;5054132;28;20197;-64
2022/10/12 10:28:24;;;;;;;1999.90;999.90;;;;;;;17.46;100.00;94994.84;5053508;28;20185;-64
2022/10/12 10:30:57;;;;;;;1999.90;999.90;;;;;;;18.14;100.00;94984.00;5053367;28;20177;-65
2022/10/12 10:33:22;;;;;;;1999.90;999.90;;;;;;;18.05;100.00;94983.25;5052989;28;20193;-63
2022/10/12 10:36:01;;;;;;;1999.90;999.90;;;;;;;18.24;100.00;94976.47;5054113;28;20173;-63
2022/10/12 10:38:30;;;;;;;1999.90;999.90;;;;;;;19.57;100.00;94947.25;5053579;28;20260;-60
2022/10/12 10:40:58;;;;;;;1999.90;999.90;;;;;;;19.62;100.00;94922.44;5053829;28;20180;-60
2022/10/12 10:43:30;;;;;;;1999.90;999.90;;;;;;;19.43;100.00;94904.41;5053142;28;20178;-62
2022/10/12 10:46:00;;;;;;;1999.90;999.90;;;;;;;19.66;100.00;94894.56;5053262;28;20182;-63
2022/10/12 10:48:52;;;;;;;1999.90;999.90;;;;;;;20.11;100.00;94881.09;5053093;28;20178;-63
2022/10/12 10:51:18;;;;;;;1999.90;999.90;;;;;;;20.36;100.00;94880.50;5052362;28;20177;-64
2022/10/12 10:53:49;;;;;;;1999.90;999.90;;;;;;;19.77;100.00;94892.75;5053000;28;20243;-63
2022/10/12 10:56:23;;;;;;;1999.90;999.90;;;;;;;19.67;100.00;94913.47;5052945;28;20174;-63